createdAt,value
2023-05-11T00:01:53.674Z,101370.91
2023-05-11T00:04:20.715Z,101370.91
2023-05-11T00:06:47.803Z,101371.21
2023-05-11T00:09:14.822Z,101374.91
2023-05-11T00:11:41.929Z,101372.04
2023-05-11T00:14:09.124Z,101373.49
2023-05-11T00:16:37.442Z,101372.04
2023-05-11T00:19:04.537Z,101370.02
2023-05-11T00:21:32.536Z,101370.31
2023-05-11T00:23:59.602Z,101373.49
2023-05-11T00:26:26.944Z,101372.92
2023-05-11T00:28:54.345Z,101372.58
2023-05-11T00:31:21.447Z,101372.81
2023-05-11T00:33:48.578Z,101373.71
2023-05-11T00:36:15.658Z,101371.03
2023-05-11T00:38:42.814Z,101367.64
2023-05-11T00:41:10.032Z,101370.69
2023-05-11T00:43:37.112Z,101366.20
2023-05-11T00:46:04.089Z,101371.98
2023-05-11T00:48:31.127Z,101368.02
2023-05-11T00:51:01.900Z,101365.00
2023-05-11T00:53:30.552Z,101366.20
2023-05-11T00:55:59.627Z,101364.23
2023-05-11T00:58:26.721Z,101360.38
2023-05-11T01:00:54.007Z,101365.25
2023-05-11T01:03:21.471Z,101366.40
2023-05-11T01:06:17.331Z,101367.27
2023-05-11T01:08:51.566Z,101366.45
2023-05-11T01:11:37.744Z,101363.84
2023-05-11T01:14:08.877Z,101362.11
2023-05-11T01:16:37.332Z,101367.97
2023-05-11T01:19:18.602Z,101368.45
2023-05-11T01:21:45.746Z,101370.64
2023-05-11T01:24:18.802Z,101370.94
2023-05-11T01:26:55.584Z,101369.38
2023-05-11T01:29:25.678Z,101371.31
2023-05-11T01:31:55.495Z,101371.98
2023-05-11T01:34:27.022Z,101373.95
2023-05-11T01:36:58.350Z,101373.49
2023-05-11T01:39:30.843Z,101374.44
2023-05-11T01:41:57.945Z,101373.88
2023-05-11T01:44:26.049Z,101369.87
2023-05-11T01:46:53.010Z,101370.30
2023-05-11T01:49:24.930Z,101372.38
2023-05-11T01:51:51.946Z,101373.16
2023-05-11T01:54:18.943Z,101378.39
2023-05-11T01:56:45.947Z,101375.63
2023-05-11T01:59:15.600Z,101375.84
2023-05-11T02:01:42.786Z,101381.24
2023-05-11T02:04:09.901Z,101375.11
2023-05-11T02:06:38.290Z,101380.20
2023-05-11T02:09:05.628Z,101378.75
2023-05-11T02:11:33.592Z,101375.22
2023-05-11T02:14:00.837Z,101378.98
2023-05-11T02:16:28.665Z,101381.68
2023-05-11T02:18:56.135Z,101383.95
2023-05-11T02:21:23.236Z,101383.26
2023-05-11T02:23:50.315Z,101384.29
2023-05-11T02:26:17.367Z,101384.85
2023-05-11T02:28:44.366Z,101385.67
2023-05-11T02:31:19.418Z,101388.61
2023-05-11T02:33:50.806Z,101389.22
2023-05-11T02:36:22.462Z,101390.66
2023-05-11T02:38:51.578Z,101390.88
2023-05-11T02:41:22.403Z,101389.71
2023-05-11T02:43:51.502Z,101390.84
2023-05-11T02:46:22.012Z,101390.46
2023-05-11T02:48:52.464Z,101396.07
2023-05-11T02:51:21.169Z,101393.84
2023-05-11T02:53:49.608Z,101391.95
2023-05-11T02:56:16.602Z,101393.21
2023-05-11T02:58:43.690Z,101395.40
2023-05-11T03:01:20.187Z,101396.46
2023-05-11T03:03:47.493Z,101394.52
2023-05-11T03:06:15.524Z,101396.76
2023-05-11T03:08:42.553Z,101395.88
2023-05-11T03:11:10.101Z,101402.37
2023-05-11T03:13:37.217Z,101410.70
2023-05-11T03:16:05.039Z,101407.95
2023-05-11T03:18:32.279Z,101404.66
2023-05-11T03:20:59.762Z,101409.30
2023-05-11T03:23:26.897Z,101419.77
2023-05-11T03:25:56.742Z,101421.41
2023-05-11T03:28:24.997Z,101418.62
2023-05-11T03:31:01.240Z,101415.90
2023-05-11T03:33:30.093Z,101420.52
2023-05-11T03:36:00.880Z,101419.46
2023-05-11T03:38:36.897Z,101419.41
2023-05-11T03:41:04.691Z,101423.40
2023-05-11T03:43:33.299Z,101424.13
2023-05-11T03:46:01.851Z,101428.63
2023-05-11T03:48:28.854Z,101430.65
2023-05-11T03:50:56.470Z,101432.77
2023-05-11T03:53:23.459Z,101431.45
2023-05-11T03:55:53.057Z,101436.03
2023-05-11T03:58:21.404Z,101439.59
2023-05-11T04:00:48.502Z,101436.92
2023-05-11T04:03:16.158Z,101437.80
2023-05-11T04:05:43.387Z,101446.00
2023-05-11T04:08:12.588Z,101444.02
2023-05-11T04:10:39.598Z,101444.82
2023-05-11T04:13:06.603Z,101450.66
2023-05-11T04:15:33.655Z,101454.16
2023-05-11T04:18:00.994Z,101456.91
2023-05-11T04:20:28.574Z,101456.42
2023-05-11T04:22:55.736Z,101454.23
2023-05-11T04:25:24.003Z,101455.22
2023-05-11T04:27:51.724Z,101457.63
2023-05-11T04:30:21.164Z,101464.04
2023-05-11T04:32:48.515Z,101461.17
2023-05-11T04:35:16.747Z,101462.27
2023-05-11T04:37:43.935Z,101460.27
2023-05-11T04:40:11.691Z,101453.52
2023-05-11T04:42:41.227Z,101452.52
2023-05-11T04:45:13.365Z,101456.35
2023-05-11T04:47:41.169Z,101455.84
2023-05-11T04:50:09.116Z,101455.33
2023-05-11T04:52:36.598Z,101457.38
2023-05-11T04:55:04.220Z,101458.64
2023-05-11T04:57:31.749Z,101460.03
2023-05-11T04:59:58.930Z,101456.27
2023-05-11T05:02:26.208Z,101455.34
2023-05-11T05:04:53.260Z,101458.54
2023-05-11T05:07:21.030Z,101459.07
2023-05-11T05:09:48.168Z,101459.63
2023-05-11T05:12:16.280Z,101461.17
2023-05-11T05:14:43.290Z,101453.71
2023-05-11T05:17:10.423Z,101456.23
2023-05-11T05:19:39.147Z,101454.50
2023-05-11T05:22:06.881Z,101456.29
2023-05-11T05:24:35.243Z,101456.30
2023-05-11T05:27:06.818Z,101456.20
2023-05-11T05:29:34.159Z,101459.52
2023-05-11T05:32:02.327Z,101463.20
2023-05-11T05:34:29.527Z,101458.14
2023-05-11T05:36:56.656Z,101455.22
2023-05-11T05:39:24.162Z,101457.88
2023-05-11T05:41:52.164Z,101460.02
2023-05-11T05:44:19.653Z,101459.61
2023-05-11T05:46:47.986Z,101456.60
2023-05-11T05:49:15.121Z,101456.09
2023-05-11T05:51:43.133Z,101454.84
2023-05-11T05:54:11.571Z,101456.59
2023-05-11T05:56:39.393Z,101458.23
2023-05-11T05:59:09.352Z,101455.45
2023-05-11T06:01:39.257Z,101450.84
2023-05-11T06:04:07.157Z,101446.66
2023-05-11T06:06:35.967Z,101451.31
2023-05-11T06:09:07.215Z,101447.79
2023-05-11T06:11:35.455Z,101449.66
2023-05-11T06:14:04.942Z,101451.09
2023-05-11T06:16:32.050Z,101449.83
2023-05-11T06:19:00.208Z,101443.36
2023-05-11T06:21:28.502Z,101443.15
2023-05-11T06:23:56.771Z,101442.71
2023-05-11T06:26:25.857Z,101446.69
2023-05-11T06:28:54.479Z,101448.67
2023-05-11T06:31:23.450Z,101448.38
2023-05-11T06:33:51.046Z,101448.09
2023-05-11T06:36:25.813Z,101447.20
2023-05-11T06:38:53.010Z,101444.77
2023-05-11T06:41:21.707Z,101445.98
2023-05-11T06:43:48.879Z,101444.23
2023-05-11T06:46:23.200Z,101441.50
2023-05-11T06:49:05.452Z,101437.28
2023-05-11T06:51:33.435Z,101438.17
2023-05-11T06:54:03.927Z,101439.33
2023-05-11T06:56:35.218Z,101436.77
2023-05-11T06:59:03.420Z,101438.29
2023-05-11T07:01:31.891Z,101438.52
2023-05-11T07:03:59.707Z,101431.69
2023-05-11T07:06:31.563Z,101435.58
2023-05-11T07:09:00.774Z,101435.02
2023-05-11T07:11:29.336Z,101434.50
2023-05-11T07:14:04.381Z,101436.20
2023-05-11T07:16:38.975Z,101430.83
2023-05-11T07:19:06.789Z,101427.80
2023-05-11T07:21:36.291Z,101433.57
2023-05-11T07:24:04.220Z,101430.66
2023-05-11T07:26:31.373Z,101430.45
2023-05-11T07:28:58.398Z,101426.02
2023-05-11T07:31:25.468Z,101425.66
2023-05-11T07:33:53.494Z,101424.02
2023-05-11T07:36:20.491Z,101420.65
2023-05-11T07:38:49.706Z,101419.70
2023-05-11T07:41:18.322Z,101412.91
2023-05-11T07:43:45.297Z,101417.27
2023-05-11T07:46:12.764Z,101419.65
2023-05-11T07:48:40.525Z,101418.89
2023-05-11T07:51:08.117Z,101415.10
2023-05-11T07:53:37.166Z,101411.96
2023-05-11T07:56:07.167Z,101405.60
2023-05-11T07:58:34.356Z,101405.23
2023-05-11T08:01:02.016Z,101403.90
2023-05-11T08:03:29.238Z,101403.55
2023-05-11T08:05:58.390Z,101403.31
2023-05-11T08:08:26.209Z,101398.89
2023-05-11T08:10:53.279Z,101396.98
2023-05-11T08:13:20.287Z,101393.70
2023-05-11T08:15:47.472Z,101394.92
2023-05-11T08:18:14.780Z,101397.05
2023-05-11T08:20:42.382Z,101400.76
2023-05-11T08:23:11.659Z,101396.90
2023-05-11T08:25:41.201Z,101397.31
2023-05-11T08:28:08.385Z,101396.20
2023-05-11T08:30:41.127Z,101399.99
2023-05-11T08:33:29.160Z,101403.00
2023-05-11T08:35:55.778Z,101405.04
2023-05-11T08:38:22.911Z,101406.59
2023-05-11T08:40:51.652Z,101408.95
2023-05-11T08:43:19.261Z,101408.71
2023-05-11T08:45:50.241Z,101408.05
2023-05-11T08:48:21.439Z,101408.64
2023-05-11T08:50:49.172Z,101404.18
2023-05-11T08:53:21.082Z,101404.09
2023-05-11T08:55:49.428Z,101407.59
2023-05-11T09:01:30.341Z,101402.97
2023-05-11T09:03:58.802Z,101405.64
2023-05-11T09:06:35.381Z,101401.04
2023-05-11T09:09:20.768Z,101403.77
2023-05-11T09:12:03.587Z,101402.66
2023-05-11T09:15:01.906Z,101396.78
2023-05-11T09:17:35.044Z,101393.20
2023-05-11T09:20:11.332Z,101392.50
2023-05-11T09:22:55.468Z,101392.88
2023-05-11T09:25:23.768Z,101386.40
2023-05-11T09:27:51.524Z,101380.58
2023-05-11T09:30:28.590Z,101378.30
2023-05-11T09:33:10.407Z,101372.05
2023-05-11T09:35:42.397Z,101364.60
2023-05-11T09:38:11.632Z,101366.58
2023-05-11T09:40:45.153Z,101355.13
2023-05-11T09:43:30.300Z,101353.95
2023-05-11T09:46:07.852Z,101349.67
2023-05-11T09:48:35.659Z,101350.91
2023-05-11T09:51:06.830Z,101348.66
2023-05-11T09:53:35.693Z,101343.42
2023-05-11T09:56:03.193Z,101343.13
2023-05-11T09:58:49.895Z,101347.41
2023-05-11T10:01:18.278Z,101343.97
2023-05-11T10:03:50.285Z,101340.94
2023-05-11T10:06:20.406Z,101336.33
2023-05-11T10:08:49.467Z,101342.06
2023-05-11T10:11:20.624Z,101346.64
2023-05-11T10:13:49.952Z,101348.14
2023-05-11T10:16:36.379Z,101343.96
2023-05-11T10:19:04.222Z,101341.44
2023-05-11T10:21:31.998Z,101340.95
2023-05-11T10:23:59.926Z,101342.86
2023-05-11T10:26:27.254Z,101336.85
2023-05-11T10:28:55.079Z,101337.05
2023-05-11T10:31:24.710Z,101335.02
2023-05-11T10:33:52.482Z,101330.77
2023-05-11T10:36:20.058Z,101328.13
2023-05-11T10:38:47.475Z,101323.06
2023-05-11T10:42:02.091Z,101319.50
2023-05-11T10:44:45.016Z,101318.71
2023-05-11T10:47:32.915Z,101314.65
2023-05-11T10:50:22.370Z,101312.48
2023-05-11T10:53:19.095Z,101310.77
2023-05-11T10:55:55.630Z,101310.08
2023-05-11T10:58:28.846Z,101306.64
2023-05-11T11:01:18.169Z,101309.64
2023-05-11T11:03:58.774Z,101309.10
2023-05-11T11:06:34.085Z,101306.58
2023-05-11T11:09:03.648Z,101306.14
2023-05-11T11:14:30.215Z,101309.94
2023-05-11T11:17:21.935Z,101307.62
2023-05-11T11:19:49.827Z,101307.10
2023-05-11T11:22:37.666Z,101305.65
2023-05-11T11:25:09.496Z,101304.66
2023-05-11T11:27:49.487Z,101301.01
2023-05-11T11:30:17.751Z,101299.66
2023-05-11T11:32:46.451Z,101300.80
2023-05-11T11:35:40.064Z,101301.69
2023-05-11T11:38:11.289Z,101304.20
2023-05-11T11:43:24.647Z,101300.91
2023-05-11T11:46:03.955Z,101298.09
2023-05-11T11:48:36.349Z,101298.36
2023-05-11T11:51:06.242Z,101295.21
2023-05-11T11:53:36.916Z,101290.73
2023-05-11T11:56:05.254Z,101288.17
2023-05-11T11:58:46.451Z,101283.73
2023-05-11T12:01:21.811Z,101281.93
2023-05-11T12:04:05.349Z,101281.33
2023-05-11T12:06:41.430Z,101276.41
2023-05-11T12:09:14.947Z,101270.29
2023-05-11T12:11:42.580Z,101266.46
2023-05-11T12:14:10.705Z,101268.15
2023-05-11T12:16:41.715Z,101267.41
2023-05-11T12:19:09.966Z,101267.10
2023-05-11T12:21:37.192Z,101264.89
2023-05-11T12:24:05.627Z,101270.82
2023-05-11T12:26:33.490Z,101278.15
2023-05-11T12:29:09.953Z,101279.81
2023-05-11T12:31:42.036Z,101276.07
2023-05-11T12:34:16.854Z,101276.23
2023-05-11T12:36:45.962Z,101278.23
2023-05-11T12:39:23.655Z,101279.77
2023-05-11T12:41:55.812Z,101271.78
2023-05-11T12:44:25.255Z,101275.17
2023-05-11T12:46:54.313Z,101271.42
2023-05-11T12:49:30.434Z,101271.77
2023-05-11T12:51:59.623Z,101275.27
2023-05-11T12:54:39.028Z,101272.31
2023-05-11T12:57:22.566Z,101271.11
2023-05-11T12:59:49.867Z,101265.38
2023-05-11T13:02:22.560Z,101261.74
2023-05-11T13:04:50.078Z,101264.19
2023-05-11T13:07:38.782Z,101257.23
2023-05-11T13:10:08.971Z,101264.63
2023-05-11T13:12:53.920Z,101265.91
2023-05-11T13:15:24.270Z,101262.90
2023-05-11T13:17:59.761Z,101259.35
2023-05-11T13:20:37.259Z,101256.02
2023-05-11T13:23:15.474Z,101257.66
2023-05-11T13:25:46.700Z,101259.13
2023-05-11T13:28:16.303Z,101257.89
2023-05-11T13:30:45.893Z,101255.80
2023-05-11T13:33:13.203Z,101253.94
2023-05-11T13:35:42.039Z,101249.55
2023-05-11T13:38:10.356Z,101244.73
2023-05-11T13:40:39.009Z,101243.97
2023-05-11T13:43:06.929Z,101238.04
2023-05-11T13:45:36.808Z,101240.86
2023-05-11T13:48:04.302Z,101238.52
2023-05-11T13:50:33.148Z,101231.86
2023-05-11T13:53:05.862Z,101229.19
2023-05-11T13:55:32.953Z,101234.56
2023-05-11T13:58:00.234Z,101234.89
2023-05-11T14:00:30.582Z,101232.71
2023-05-11T14:03:03.041Z,101234.17
2023-05-11T14:05:30.390Z,101232.49
2023-05-11T14:08:01.145Z,101236.63
2023-05-11T14:10:30.993Z,101230.84
2023-05-11T14:12:59.743Z,101231.58
2023-05-11T14:15:32.087Z,101233.90
2023-05-11T14:18:00.265Z,101234.80
2023-05-11T14:20:28.599Z,101233.13
2023-05-11T14:23:03.202Z,101228.95
2023-05-11T14:25:38.815Z,101228.84
2023-05-11T14:28:08.925Z,101222.15
2023-05-11T14:30:38.647Z,101222.66
2023-05-11T14:33:19.187Z,101221.97
2023-05-11T14:35:54.223Z,101224.34
2023-05-11T14:38:22.655Z,101218.55
2023-05-11T14:41:00.140Z,101216.48
2023-05-11T14:43:28.628Z,101214.79
2023-05-11T14:46:02.636Z,101214.16
2023-05-11T14:48:30.296Z,101210.06
2023-05-11T14:51:32.910Z,101204.52
2023-05-11T14:54:01.843Z,101205.55
2023-05-11T14:56:30.122Z,101206.74
2023-05-11T14:59:00.192Z,101204.17
2023-05-11T15:01:29.393Z,101204.98
2023-05-11T15:03:57.766Z,101200.61
2023-05-11T15:06:25.324Z,101202.11
2023-05-11T15:08:52.751Z,101201.31
2023-05-11T15:11:21.639Z,101200.32
2023-05-11T15:13:51.219Z,101204.17
2023-05-11T15:16:19.593Z,101199.38
2023-05-11T15:18:48.688Z,101197.84
2023-05-11T15:21:16.567Z,101197.55
2023-05-11T15:23:51.788Z,101200.13
2023-05-11T15:26:44.007Z,101202.88
2023-05-11T15:29:13.074Z,101199.20
2023-05-11T15:31:41.252Z,101198.74
2023-05-11T15:34:09.977Z,101197.60
2023-05-11T15:39:26.061Z,101195.86
2023-05-11T15:41:58.174Z,101195.98
2023-05-11T15:44:42.667Z,101193.81
2023-05-11T15:47:10.060Z,101198.95
2023-05-11T15:49:38.755Z,101201.45
2023-05-11T15:52:07.891Z,101197.72
2023-05-11T15:54:37.627Z,101195.20
2023-05-11T15:57:07.979Z,101194.06
2023-05-11T15:59:38.419Z,101196.66
2023-05-11T16:02:06.558Z,101195.92
2023-05-11T16:04:39.425Z,101198.27
2023-05-11T16:07:07.552Z,101195.63
2023-05-11T16:09:35.304Z,101194.60
2023-05-11T16:12:04.356Z,101193.48
2023-05-11T16:14:42.793Z,101197.17
2023-05-11T16:17:18.432Z,101198.84
2023-05-11T16:19:59.365Z,101199.61
2023-05-11T16:22:29.405Z,101201.88
2023-05-11T16:25:02.965Z,101201.36
2023-05-11T16:27:30.856Z,101203.56
2023-05-11T16:29:58.984Z,101205.36
2023-05-11T16:32:30.142Z,101205.27
2023-05-11T16:34:58.412Z,101208.70
2023-05-11T16:37:27.508Z,101204.18
2023-05-11T16:39:55.474Z,101208.96
2023-05-11T16:42:25.566Z,101215.71
2023-05-11T16:44:52.801Z,101212.89
2023-05-11T16:47:20.788Z,101214.20
2023-05-11T16:49:48.230Z,101214.75
2023-05-11T16:52:15.322Z,101215.17
2023-05-11T16:54:42.373Z,101212.86
2023-05-11T16:57:09.987Z,101217.39
2023-05-11T16:59:37.130Z,101218.34
2023-05-11T17:02:06.302Z,101221.67
2023-05-11T17:04:33.508Z,101217.58
2023-05-11T17:07:00.573Z,101223.19
2023-05-11T17:09:29.288Z,101220.16
2023-05-11T17:11:56.534Z,101226.36
2023-05-11T17:14:23.631Z,101224.54
2023-05-11T17:16:51.316Z,101227.95
2023-05-11T17:19:18.597Z,101226.51
2023-05-11T17:21:45.678Z,101227.17
2023-05-11T17:24:12.978Z,101228.14
2023-05-11T17:26:47.837Z,101230.69
2023-05-11T17:29:19.291Z,101235.77
2023-05-11T17:31:52.333Z,101235.50
2023-05-11T17:34:21.005Z,101238.87
2023-05-11T17:36:50.071Z,101243.88
2023-05-11T17:39:19.428Z,101245.41
2023-05-11T17:41:47.608Z,101246.35
2023-05-11T17:44:15.777Z,101255.06
2023-05-11T17:46:43.838Z,101255.21
2023-05-11T17:49:12.483Z,101258.07
2023-05-11T17:51:42.418Z,101262.67
2023-05-11T17:54:11.206Z,101264.09
2023-05-11T17:56:38.382Z,101266.48
2023-05-11T17:59:05.993Z,101267.80
2023-05-11T18:01:34.009Z,101276.09
2023-05-11T18:04:01.236Z,101277.93
2023-05-11T18:06:30.302Z,101277.95
2023-05-11T18:08:59.341Z,101278.92
2023-05-11T18:11:27.872Z,101284.73
2023-05-11T18:13:55.000Z,101284.98
2023-05-11T18:16:22.218Z,101287.46
2023-05-11T18:18:49.257Z,101290.80
2023-05-11T18:21:18.481Z,101292.60
2023-05-11T18:24:06.789Z,101297.46
2023-05-11T18:26:52.281Z,101298.29
2023-05-11T18:29:22.178Z,101299.27
2023-05-11T18:31:49.869Z,101303.47
2023-05-11T18:34:17.014Z,101306.20
2023-05-11T18:36:44.311Z,101307.53
2023-05-11T18:39:11.355Z,101307.08
2023-05-11T18:41:38.441Z,101309.26
2023-05-11T18:44:05.589Z,101307.73
2023-05-11T18:46:32.839Z,101307.74
2023-05-11T18:48:59.950Z,101312.09
2023-05-11T18:51:27.004Z,101313.42
2023-05-11T18:53:54.127Z,101313.63
2023-05-11T18:56:22.385Z,101313.89
2023-05-11T18:58:50.630Z,101313.51
2023-05-11T19:01:19.057Z,101313.40
2023-05-11T19:03:46.321Z,101319.09
2023-05-11T19:06:14.737Z,101318.33
2023-05-11T19:12:12.414Z,101323.27
2023-05-11T19:14:52.944Z,101319.35
2023-05-11T19:17:43.005Z,101319.62
2023-05-11T19:20:25.394Z,101318.64
2023-05-11T19:23:12.394Z,101319.14
2023-05-11T19:25:48.655Z,101313.92
2023-05-11T19:28:31.063Z,101313.81
2023-05-11T19:31:20.004Z,101315.92
2023-05-11T19:33:54.485Z,101311.61
2023-05-11T19:36:45.372Z,101316.71
2023-05-11T19:39:23.339Z,101317.02
2023-05-11T19:42:07.304Z,101318.46
2023-05-11T19:44:59.527Z,101320.02
2023-05-11T19:47:49.292Z,101319.66
2023-05-11T19:53:23.082Z,101323.55
2023-05-11T19:56:27.084Z,101323.67
2023-05-11T19:59:16.693Z,101322.55
2023-05-11T20:02:08.425Z,101318.08
2023-05-11T20:04:46.618Z,101316.72
2023-05-11T20:07:24.933Z,101318.90
2023-05-11T20:09:57.413Z,101315.80
2023-05-11T20:12:28.130Z,101317.02
2023-05-11T20:14:56.095Z,101320.44
2023-05-11T20:17:23.180Z,101323.40
2023-05-11T20:19:51.583Z,101323.39
2023-05-11T20:22:23.077Z,101324.58
2023-05-11T20:24:51.863Z,101322.84
2023-05-11T20:27:30.286Z,101319.75
2023-05-11T20:29:57.715Z,101322.41
2023-05-11T20:32:25.073Z,101326.48
2023-05-11T20:34:52.398Z,101326.84
2023-05-11T20:37:19.652Z,101329.29
2023-05-11T20:39:48.402Z,101324.71
2023-05-11T20:42:15.652Z,101328.23
2023-05-11T20:44:42.964Z,101330.90
2023-05-11T20:47:15.605Z,101329.61
2023-05-11T20:49:42.896Z,101331.96
2023-05-11T20:52:14.146Z,101332.54
2023-05-11T20:54:42.564Z,101336.91
2023-05-11T20:57:09.798Z,101338.02
2023-05-11T21:02:07.123Z,101338.16
2023-05-11T21:04:37.296Z,101341.57
2023-05-11T21:07:07.319Z,101343.47
2023-05-11T21:09:35.095Z,101342.76
2023-05-11T21:12:11.824Z,101342.88
2023-05-11T21:14:38.913Z,101343.09
2023-05-11T21:17:06.138Z,101339.91
2023-05-11T21:19:35.054Z,101343.55
2023-05-11T21:22:02.206Z,101345.62
2023-05-11T21:24:29.351Z,101346.58
2023-05-11T21:26:56.442Z,101349.52
2023-05-11T21:29:23.581Z,101350.16
2023-05-11T21:31:50.716Z,101354.06
2023-05-11T21:34:18.254Z,101357.58
2023-05-11T21:36:45.922Z,101354.66
2023-05-11T21:39:15.832Z,101360.16
2023-05-11T21:41:44.159Z,101357.48
2023-05-11T21:44:11.331Z,101359.16
2023-05-11T21:46:38.567Z,101358.51
2023-05-11T21:49:05.815Z,101361.27
2023-05-11T21:51:33.882Z,101362.13
2023-05-11T21:54:01.117Z,101361.33
2023-05-11T21:56:28.865Z,101360.58
2023-05-11T21:58:55.960Z,101365.00
2023-05-11T22:01:23.181Z,101368.42
2023-05-11T22:03:50.548Z,101365.04
2023-05-11T22:06:17.697Z,101362.71
2023-05-11T22:08:44.771Z,101363.29
2023-05-11T22:11:12.119Z,101361.33
2023-05-11T22:13:39.244Z,101365.27
2023-05-11T22:16:06.633Z,101365.15
2023-05-11T22:18:33.860Z,101367.13
2023-05-11T22:21:01.088Z,101367.63
2023-05-11T22:23:28.366Z,101368.29
2023-05-11T22:25:55.783Z,101370.44
2023-05-11T22:28:23.109Z,101370.09
2023-05-11T22:30:50.206Z,101371.38
2023-05-11T22:33:17.537Z,101369.05
2023-05-11T22:35:46.354Z,101370.23
2023-05-11T22:38:14.034Z,101370.30
2023-05-11T22:40:41.494Z,101368.04
2023-05-11T22:43:08.575Z,101369.63
2023-05-11T22:45:35.812Z,101369.14
2023-05-11T22:48:02.921Z,101369.02
2023-05-11T22:50:30.172Z,101365.30
2023-05-11T22:52:57.311Z,101365.71
2023-05-11T22:55:25.287Z,101362.42
2023-05-11T22:57:52.437Z,101362.44
2023-05-11T23:00:21.121Z,101370.05
2023-05-11T23:02:48.528Z,101371.23
2023-05-11T23:05:15.975Z,101371.42
2023-05-11T23:07:43.655Z,101367.77
2023-05-11T23:10:11.016Z,101367.23
2023-05-11T23:12:39.097Z,101367.98
2023-05-11T23:15:09.889Z,101366.61
2023-05-11T23:17:37.011Z,101364.27
2023-05-11T23:20:04.849Z,101367.42
2023-05-11T23:22:31.829Z,101363.98
2023-05-11T23:25:00.528Z,101365.66
2023-05-11T23:27:28.556Z,101365.66
2023-05-11T23:29:55.571Z,101362.91
2023-05-11T23:32:22.549Z,101364.27
2023-05-11T23:34:51.603Z,101362.23
2023-05-11T23:37:18.791Z,101362.21
2023-05-11T23:39:45.739Z,101358.81
2023-05-11T23:42:13.139Z,101357.09
2023-05-11T23:44:40.950Z,101357.48
2023-05-11T23:47:09.211Z,101354.44
2023-05-11T23:49:36.347Z,101356.79
2023-05-11T23:52:05.915Z,101354.79
2023-05-11T23:54:33.157Z,101358.87
2023-05-11T23:57:00.187Z,101363.98
2023-05-11T23:59:28.758Z,101360.52
